sensor_id;sensor_type;location;lat;lon;timestamp;temperature;humidity
4374;DHT22;2201;51.100;6.814;2023-08-30T00:02:13;16.30;98.20
4374;DHT22;2201;51.100;6.814;2023-08-30T00:04:41;16.30;98.20
4374;DHT22;2201;51.100;6.814;2023-08-30T00:07:08;16.30;98.20
4374;DHT22;2201;51.100;6.814;2023-08-30T00:09:36;16.30;98.20
4374;DHT22;2201;51.100;6.814;2023-08-30T00:12:03;16.30;98.20
4374;DHT22;2201;51.100;6.814;2023-08-30T00:14:30;16.30;98.20
4374;DHT22;2201;51.100;6.814;2023-08-30T00:16:59;16.30;98.20
4374;DHT22;2201;51.100;6.814;2023-08-30T00:19:25;16.30;98.20
4374;DHT22;2201;51.100;6.814;2023-08-30T00:21:52;16.30;98.20
4374;DHT22;2201;51.100;6.814;2023-08-30T00:24:19;16.30;98.20
4374;DHT22;2201;51.100;6.814;2023-08-30T00:26:46;16.30;98.20
4374;DHT22;2201;51.100;6.814;2023-08-30T00:29:13;16.30;98.20
4374;DHT22;2201;51.100;6.814;2023-08-30T00:31:39;16.30;98.20
4374;DHT22;2201;51.100;6.814;2023-08-30T00:34:07;16.30;98.20
4374;DHT22;2201;51.100;6.814;2023-08-30T00:36:34;16.30;98.20
4374;DHT22;2201;51.100;6.814;2023-08-30T00:39:02;16.30;98.20
4374;DHT22;2201;51.100;6.814;2023-08-30T00:41:29;16.30;98.20
4374;DHT22;2201;51.100;6.814;2023-08-30T00:43:56;16.30;98.20
4374;DHT22;2201;51.100;6.814;2023-08-30T00:46:23;16.30;98.20
4374;DHT22;2201;51.100;6.814;2023-08-30T00:48:49;16.30;98.20
4374;DHT22;2201;51.100;6.814;2023-08-30T00:51:18;16.30;98.20
4374;DHT22;2201;51.100;6.814;2023-08-30T00:53:45;16.40;98.20
4374;DHT22;2201;51.100;6.814;2023-08-30T00:56:12;16.40;98.20
4374;DHT22;2201;51.100;6.814;2023-08-30T00:58:39;16.40;98.20
4374;DHT22;2201;51.100;6.814;2023-08-30T01:01:06;16.40;98.20
4374;DHT22;2201;51.100;6.814;2023-08-30T01:03:33;16.40;98.20
4374;DHT22;2201;51.100;6.814;2023-08-30T01:06:01;16.40;98.20
4374;DHT22;2201;51.100;6.814;2023-08-30T01:08:29;16.40;98.20
4374;DHT22;2201;51.100;6.814;2023-08-30T01:11:01;16.40;98.20
4374;DHT22;2201;51.100;6.814;2023-08-30T01:13:30;16.40;98.20
4374;DHT22;2201;51.100;6.814;2023-08-30T01:16:00;16.40;98.20
4374;DHT22;2201;51.100;6.814;2023-08-30T01:18:30;16.40;98.20
4374;DHT22;2201;51.100;6.814;2023-08-30T01:21:00;16.40;98.20
4374;DHT22;2201;51.100;6.814;2023-08-30T01:23:47;16.30;98.20
4374;DHT22;2201;51.100;6.814;2023-08-30T01:26:20;16.30;98.20
4374;DHT22;2201;51.100;6.814;2023-08-30T01:28:53;16.20;98.20
4374;DHT22;2201;51.100;6.814;2023-08-30T01:31:21;16.20;98.20
4374;DHT22;2201;51.100;6.814;2023-08-30T01:33:50;16.20;98.20
4374;DHT22;2201;51.100;6.814;2023-08-30T01:36:17;16.10;98.20
4374;DHT22;2201;51.100;6.814;2023-08-30T01:38:44;16.10;98.20
4374;DHT22;2201;51.100;6.814;2023-08-30T01:41:12;16.00;98.20
4374;DHT22;2201;51.100;6.814;2023-08-30T01:43:39;16.00;98.20
4374;DHT22;2201;51.100;6.814;2023-08-30T01:46:08;15.90;98.20
4374;DHT22;2201;51.100;6.814;2023-08-30T01:48:36;15.90;98.20
4374;DHT22;2201;51.100;6.814;2023-08-30T01:51:03;15.80;98.20
4374;DHT22;2201;51.100;6.814;2023-08-30T01:53:31;15.70;98.20
4374;DHT22;2201;51.100;6.814;2023-08-30T01:55:58;15.70;98.20
4374;DHT22;2201;51.100;6.814;2023-08-30T01:58:25;15.70;98.20
4374;DHT22;2201;51.100;6.814;2023-08-30T02:00:52;15.70;98.20
4374;DHT22;2201;51.100;6.814;2023-08-30T02:03:20;15.60;98.20
4374;DHT22;2201;51.100;6.814;2023-08-30T02:05:56;15.60;98.20
4374;DHT22;2201;51.100;6.814;2023-08-30T02:08:26;15.60;98.20
4374;DHT22;2201;51.100;6.814;2023-08-30T02:11:01;15.60;98.20
4374;DHT22;2201;51.100;6.814;2023-08-30T02:13:30;15.50;98.20
4374;DHT22;2201;51.100;6.814;2023-08-30T02:16:00;15.50;98.20
4374;DHT22;2201;51.100;6.814;2023-08-30T02:18:28;15.50;98.20
4374;DHT22;2201;51.100;6.814;2023-08-30T02:20:55;15.40;98.20
4374;DHT22;2201;51.100;6.814;2023-08-30T02:23:23;15.40;98.20
4374;DHT22;2201;51.100;6.814;2023-08-30T02:25:50;15.40;98.20
4374;DHT22;2201;51.100;6.814;2023-08-30T02:28:17;15.30;98.20
4374;DHT22;2201;51.100;6.814;2023-08-30T02:30:44;15.30;98.20
4374;DHT22;2201;51.100;6.814;2023-08-30T02:33:10;15.30;98.20
4374;DHT22;2201;51.100;6.814;2023-08-30T02:35:38;15.20;98.20
4374;DHT22;2201;51.100;6.814;2023-08-30T02:38:05;15.20;98.20
4374;DHT22;2201;51.100;6.814;2023-08-30T02:40:33;15.10;98.20
4374;DHT22;2201;51.100;6.814;2023-08-30T02:42:59;15.10;98.20
4374;DHT22;2201;51.100;6.814;2023-08-30T02:45:26;15.00;98.20
4374;DHT22;2201;51.100;6.814;2023-08-30T02:47:55;15.00;98.20
4374;DHT22;2201;51.100;6.814;2023-08-30T02:50:22;15.00;98.20
4374;DHT22;2201;51.100;6.814;2023-08-30T02:52:50;15.00;98.20
4374;DHT22;2201;51.100;6.814;2023-08-30T02:55:17;15.00;98.20
4374;DHT22;2201;51.100;6.814;2023-08-30T02:57:44;15.00;98.20
4374;DHT22;2201;51.100;6.814;2023-08-30T03:00:13;14.90;98.20
4374;DHT22;2201;51.100;6.814;2023-08-30T03:02:40;14.90;98.20
4374;DHT22;2201;51.100;6.814;2023-08-30T03:05:07;14.90;98.20
4374;DHT22;2201;51.100;6.814;2023-08-30T03:07:34;14.80;98.20
4374;DHT22;2201;51.100;6.814;2023-08-30T03:10:02;14.80;98.20
4374;DHT22;2201;51.100;6.814;2023-08-30T03:12:29;14.80;98.20
4374;DHT22;2201;51.100;6.814;2023-08-30T03:14:56;14.70;98.20
4374;DHT22;2201;51.100;6.814;2023-08-30T03:17:22;14.70;98.20
4374;DHT22;2201;51.100;6.814;2023-08-30T03:19:51;14.70;98.20
4374;DHT22;2201;51.100;6.814;2023-08-30T03:22:19;14.70;98.20
4374;DHT22;2201;51.100;6.814;2023-08-30T03:24:46;14.70;98.20
4374;DHT22;2201;51.100;6.814;2023-08-30T03:27:14;14.70;98.20
4374;DHT22;2201;51.100;6.814;2023-08-30T03:29:41;14.70;98.20
4374;DHT22;2201;51.100;6.814;2023-08-30T03:32:07;14.60;98.20
4374;DHT22;2201;51.100;6.814;2023-08-30T03:34:34;14.60;98.20
4374;DHT22;2201;51.100;6.814;2023-08-30T03:37:01;14.60;98.20
4374;DHT22;2201;51.100;6.814;2023-08-30T03:39:28;14.60;98.20
4374;DHT22;2201;51.100;6.814;2023-08-30T03:41:55;14.60;98.20
4374;DHT22;2201;51.100;6.814;2023-08-30T03:44:23;14.60;98.20
4374;DHT22;2201;51.100;6.814;2023-08-30T03:46:50;14.60;98.20
4374;DHT22;2201;51.100;6.814;2023-08-30T03:49:16;14.50;98.20
4374;DHT22;2201;51.100;6.814;2023-08-30T03:51:43;14.50;98.20
4374;DHT22;2201;51.100;6.814;2023-08-30T03:54:10;14.50;98.20
4374;DHT22;2201;51.100;6.814;2023-08-30T03:56:41;14.50;98.20
4374;DHT22;2201;51.100;6.814;2023-08-30T03:59:08;14.40;98.20
4374;DHT22;2201;51.100;6.814;2023-08-30T04:01:36;14.40;98.20
4374;DHT22;2201;51.100;6.814;2023-08-30T04:04:03;14.40;98.20
4374;DHT22;2201;51.100;6.814;2023-08-30T04:06:30;14.40;98.20
4374;DHT22;2201;51.100;6.814;2023-08-30T04:08:57;14.40;98.20
4374;DHT22;2201;51.100;6.814;2023-08-30T04:11:24;14.40;98.20
4374;DHT22;2201;51.100;6.814;2023-08-30T04:13:51;14.40;98.20
4374;DHT22;2201;51.100;6.814;2023-08-30T04:16:18;14.40;98.20
4374;DHT22;2201;51.100;6.814;2023-08-30T04:18:47;14.40;98.20
4374;DHT22;2201;51.100;6.814;2023-08-30T04:21:13;14.50;98.20
4374;DHT22;2201;51.100;6.814;2023-08-30T04:23:40;14.50;98.20
4374;DHT22;2201;51.100;6.814;2023-08-30T04:26:07;14.50;98.20
4374;DHT22;2201;51.100;6.814;2023-08-30T04:28:34;14.50;98.20
4374;DHT22;2201;51.100;6.814;2023-08-30T04:31:01;14.60;98.20
4374;DHT22;2201;51.100;6.814;2023-08-30T04:33:27;14.60;98.20
4374;DHT22;2201;51.100;6.814;2023-08-30T04:35:56;14.60;98.20
4374;DHT22;2201;51.100;6.814;2023-08-30T04:38:22;14.60;98.20
4374;DHT22;2201;51.100;6.814;2023-08-30T04:43:18;14.70;98.20
4374;DHT22;2201;51.100;6.814;2023-08-30T04:45:47;14.70;98.20
4374;DHT22;2201;51.100;6.814;2023-08-30T04:48:14;14.70;98.20
4374;DHT22;2201;51.100;6.814;2023-08-30T04:50:41;14.70;98.20
4374;DHT22;2201;51.100;6.814;2023-08-30T04:53:09;14.80;98.20
4374;DHT22;2201;51.100;6.814;2023-08-30T04:55:36;14.80;98.20
4374;DHT22;2201;51.100;6.814;2023-08-30T04:58:03;14.80;98.20
4374;DHT22;2201;51.100;6.814;2023-08-30T05:00:30;14.70;98.20
4374;DHT22;2201;51.100;6.814;2023-08-30T05:02:57;14.70;98.20
4374;DHT22;2201;51.100;6.814;2023-08-30T05:05:24;14.70;98.20
4374;DHT22;2201;51.100;6.814;2023-08-30T05:07:50;14.80;98.20
4374;DHT22;2201;51.100;6.814;2023-08-30T05:10:19;14.80;98.20
4374;DHT22;2201;51.100;6.814;2023-08-30T05:12:45;14.80;98.20
4374;DHT22;2201;51.100;6.814;2023-08-30T05:15:17;14.80;98.20
4374;DHT22;2201;51.100;6.814;2023-08-30T05:17:44;14.80;98.20
4374;DHT22;2201;51.100;6.814;2023-08-30T05:20:11;14.80;98.20
4374;DHT22;2201;51.100;6.814;2023-08-30T05:22:38;14.70;98.20
4374;DHT22;2201;51.100;6.814;2023-08-30T05:25:05;14.80;98.20
4374;DHT22;2201;51.100;6.814;2023-08-30T05:27:33;14.70;98.20
4374;DHT22;2201;51.100;6.814;2023-08-30T05:30:00;14.80;98.20
4374;DHT22;2201;51.100;6.814;2023-08-30T05:32:28;14.80;98.20
4374;DHT22;2201;51.100;6.814;2023-08-30T05:34:57;14.70;98.20
4374;DHT22;2201;51.100;6.814;2023-08-30T05:37:24;14.80;98.20
4374;DHT22;2201;51.100;6.814;2023-08-30T05:39:53;14.80;98.20
4374;DHT22;2201;51.100;6.814;2023-08-30T05:42:20;14.80;98.20
4374;DHT22;2201;51.100;6.814;2023-08-30T05:44:48;14.80;98.20
4374;DHT22;2201;51.100;6.814;2023-08-30T05:47:15;14.90;98.20
4374;DHT22;2201;51.100;6.814;2023-08-30T05:49:44;15.00;98.20
4374;DHT22;2201;51.100;6.814;2023-08-30T05:52:11;15.00;98.20
4374;DHT22;2201;51.100;6.814;2023-08-30T05:54:38;15.10;98.20
4374;DHT22;2201;51.100;6.814;2023-08-30T05:57:05;15.20;98.20
4374;DHT22;2201;51.100;6.814;2023-08-30T05:59:31;15.30;98.20
4374;DHT22;2201;51.100;6.814;2023-08-30T06:02:00;15.30;98.20
4374;DHT22;2201;51.100;6.814;2023-08-30T06:04:26;15.40;98.20
4374;DHT22;2201;51.100;6.814;2023-08-30T06:06:53;15.50;98.20
4374;DHT22;2201;51.100;6.814;2023-08-30T06:09:20;15.60;98.20
4374;DHT22;2201;51.100;6.814;2023-08-30T06:11:47;15.60;98.20
4374;DHT22;2201;51.100;6.814;2023-08-30T06:14:14;15.60;98.20
4374;DHT22;2201;51.100;6.814;2023-08-30T06:16:41;15.60;98.20
4374;DHT22;2201;51.100;6.814;2023-08-30T06:19:11;15.60;98.20
4374;DHT22;2201;51.100;6.814;2023-08-30T06:21:40;15.60;98.20
4374;DHT22;2201;51.100;6.814;2023-08-30T06:24:07;15.50;98.20
4374;DHT22;2201;51.100;6.814;2023-08-30T06:26:36;15.50;98.20
4374;DHT22;2201;51.100;6.814;2023-08-30T06:29:02;15.50;98.20
4374;DHT22;2201;51.100;6.814;2023-08-30T06:31:29;15.60;98.20
4374;DHT22;2201;51.100;6.814;2023-08-30T06:33:57;15.60;98.20
4374;DHT22;2201;51.100;6.814;2023-08-30T06:36:25;15.70;98.20
4374;DHT22;2201;51.100;6.814;2023-08-30T06:38:52;15.70;98.20
4374;DHT22;2201;51.100;6.814;2023-08-30T06:41:19;15.70;98.20
4374;DHT22;2201;51.100;6.814;2023-08-30T06:43:49;15.70;98.20
4374;DHT22;2201;51.100;6.814;2023-08-30T06:46:16;15.80;98.20
4374;DHT22;2201;51.100;6.814;2023-08-30T06:48:43;15.90;98.20
4374;DHT22;2201;51.100;6.814;2023-08-30T06:51:10;15.90;98.20
4374;DHT22;2201;51.100;6.814;2023-08-30T06:53:38;16.00;98.20
4374;DHT22;2201;51.100;6.814;2023-08-30T06:56:05;16.00;98.20
4374;DHT22;2201;51.100;6.814;2023-08-30T06:58:32;16.10;98.20
4374;DHT22;2201;51.100;6.814;2023-08-30T07:00:59;16.30;98.20
4374;DHT22;2201;51.100;6.814;2023-08-30T07:03:28;16.50;98.20
4374;DHT22;2201;51.100;6.814;2023-08-30T07:05:55;16.70;98.20
4374;DHT22;2201;51.100;6.814;2023-08-30T07:08:22;16.90;98.20
4374;DHT22;2201;51.100;6.814;2023-08-30T07:10:51;17.00;98.20
4374;DHT22;2201;51.100;6.814;2023-08-30T07:13:18;17.10;98.20
4374;DHT22;2201;51.100;6.814;2023-08-30T07:15:45;17.30;98.20
4374;DHT22;2201;51.100;6.814;2023-08-30T07:18:12;17.40;98.20
4374;DHT22;2201;51.100;6.814;2023-08-30T07:20:39;17.60;98.20
4374;DHT22;2201;51.100;6.814;2023-08-30T07:23:10;17.70;98.20
4374;DHT22;2201;51.100;6.814;2023-08-30T07:25:37;17.80;98.20
4374;DHT22;2201;51.100;6.814;2023-08-30T07:28:06;18.00;98.20
4374;DHT22;2201;51.100;6.814;2023-08-30T07:30:33;18.20;98.20
4374;DHT22;2201;51.100;6.814;2023-08-30T07:33:00;18.40;98.20
4374;DHT22;2201;51.100;6.814;2023-08-30T07:35:28;18.50;98.20
4374;DHT22;2201;51.100;6.814;2023-08-30T07:37:55;18.70;98.20
4374;DHT22;2201;51.100;6.814;2023-08-30T07:40:22;19.00;98.20
4374;DHT22;2201;51.100;6.814;2023-08-30T07:42:51;19.30;98.20
4374;DHT22;2201;51.100;6.814;2023-08-30T07:45:20;19.30;98.20
4374;DHT22;2201;51.100;6.814;2023-08-30T07:47:46;19.40;98.20
4374;DHT22;2201;51.100;6.814;2023-08-30T07:50:13;19.50;98.20
4374;DHT22;2201;51.100;6.814;2023-08-30T07:52:40;19.70;98.20
4374;DHT22;2201;51.100;6.814;2023-08-30T07:55:07;19.70;98.20
4374;DHT22;2201;51.100;6.814;2023-08-30T07:57:35;19.80;98.20
4374;DHT22;2201;51.100;6.814;2023-08-30T08:00:01;19.80;98.20
4374;DHT22;2201;51.100;6.814;2023-08-30T08:02:30;19.90;98.20
4374;DHT22;2201;51.100;6.814;2023-08-30T08:04:57;20.00;98.20
4374;DHT22;2201;51.100;6.814;2023-08-30T08:07:24;20.10;98.20
4374;DHT22;2201;51.100;6.814;2023-08-30T08:09:51;20.40;98.20
4374;DHT22;2201;51.100;6.814;2023-08-30T08:12:17;20.50;98.20
4374;DHT22;2201;51.100;6.814;2023-08-30T08:14:44;20.60;98.10
4374;DHT22;2201;51.100;6.814;2023-08-30T08:17:11;20.70;98.20
4374;DHT22;2201;51.100;6.814;2023-08-30T08:19:39;20.80;98.20
4374;DHT22;2201;51.100;6.814;2023-08-30T08:22:08;20.70;98.00
4374;DHT22;2201;51.100;6.814;2023-08-30T08:24:35;20.70;98.20
4374;DHT22;2201;51.100;6.814;2023-08-30T08:27:02;20.80;98.20
4374;DHT22;2201;51.100;6.814;2023-08-30T08:29:31;20.80;98.20
4374;DHT22;2201;51.100;6.814;2023-08-30T08:31:57;20.90;98.20
4374;DHT22;2201;51.100;6.814;2023-08-30T08:34:24;21.00;98.10
4374;DHT22;2201;51.100;6.814;2023-08-30T08:36:52;21.00;98.20
4374;DHT22;2201;51.100;6.814;2023-08-30T08:39:19;21.10;98.20
4374;DHT22;2201;51.100;6.814;2023-08-30T08:41:46;21.20;97.30
4374;DHT22;2201;51.100;6.814;2023-08-30T08:44:13;21.30;96.50
4374;DHT22;2201;51.100;6.814;2023-08-30T08:46:41;21.30;97.80
4374;DHT22;2201;51.100;6.814;2023-08-30T08:49:10;21.50;97.50
4374;DHT22;2201;51.100;6.814;2023-08-30T08:53:57;21.60;97.40
4374;DHT22;2201;51.100;6.814;2023-08-30T08:54:48;21.80;95.80
4374;DHT22;2201;51.100;6.814;2023-08-30T08:57:15;21.90;95.20
4374;DHT22;2201;51.100;6.814;2023-08-30T08:59:41;21.90;95.00
4374;DHT22;2201;51.100;6.814;2023-08-30T09:02:11;22.00;94.50
4374;DHT22;2201;51.100;6.814;2023-08-30T09:04:39;22.00;94.40
4374;DHT22;2201;51.100;6.814;2023-08-30T09:07:06;22.00;95.20
4374;DHT22;2201;51.100;6.814;2023-08-30T09:09:33;21.90;95.60
4374;DHT22;2201;51.100;6.814;2023-08-30T09:12:01;21.80;97.70
4374;DHT22;2201;51.100;6.814;2023-08-30T09:14:29;21.60;97.40
4374;DHT22;2201;51.100;6.814;2023-08-30T09:16:56;21.50;97.30
4374;DHT22;2201;51.100;6.814;2023-08-30T09:19:23;21.50;97.30
4374;DHT22;2201;51.100;6.814;2023-08-30T09:21:53;21.50;96.90
4374;DHT22;2201;51.100;6.814;2023-08-30T09:24:20;21.50;96.50
4374;DHT22;2201;51.100;6.814;2023-08-30T09:26:47;21.40;96.10
4374;DHT22;2201;51.100;6.814;2023-08-30T09:29:17;21.30;96.20
4374;DHT22;2201;51.100;6.814;2023-08-30T09:31:45;21.30;96.60
4374;DHT22;2201;51.100;6.814;2023-08-30T09:34:12;21.20;97.40
4374;DHT22;2201;51.100;6.814;2023-08-30T09:36:41;21.10;96.30
4374;DHT22;2201;51.100;6.814;2023-08-30T09:39:09;21.00;97.00
4374;DHT22;2201;51.100;6.814;2023-08-30T09:41:36;21.00;97.40
4374;DHT22;2201;51.100;6.814;2023-08-30T09:44:07;20.90;98.20
4374;DHT22;2201;51.100;6.814;2023-08-30T09:46:42;20.90;98.20
4374;DHT22;2201;51.100;6.814;2023-08-30T09:49:09;20.80;98.20
4374;DHT22;2201;51.100;6.814;2023-08-30T09:51:38;20.80;98.20
4374;DHT22;2201;51.100;6.814;2023-08-30T09:54:13;20.70;98.20
4374;DHT22;2201;51.100;6.814;2023-08-30T09:56:43;20.70;98.20
4374;DHT22;2201;51.100;6.814;2023-08-30T09:59:10;20.70;98.20
4374;DHT22;2201;51.100;6.814;2023-08-30T10:01:38;20.60;98.20
4374;DHT22;2201;51.100;6.814;2023-08-30T10:04:08;20.40;98.20
4374;DHT22;2201;51.100;6.814;2023-08-30T10:06:36;20.20;98.20
4374;DHT22;2201;51.100;6.814;2023-08-30T10:09:03;20.10;98.20
4374;DHT22;2201;51.100;6.814;2023-08-30T10:11:33;20.00;98.20
4374;DHT22;2201;51.100;6.814;2023-08-30T10:14:02;20.00;98.20
4374;DHT22;2201;51.100;6.814;2023-08-30T10:16:34;19.90;98.20
4374;DHT22;2201;51.100;6.814;2023-08-30T10:19:06;19.90;98.20
4374;DHT22;2201;51.100;6.814;2023-08-30T10:21:36;19.80;98.20
4374;DHT22;2201;51.100;6.814;2023-08-30T10:24:05;19.80;98.20
4374;DHT22;2201;51.100;6.814;2023-08-30T10:26:34;19.80;98.20
4374;DHT22;2201;51.100;6.814;2023-08-30T10:29:01;19.80;98.20
4374;DHT22;2201;51.100;6.814;2023-08-30T10:31:29;19.80;98.20
4374;DHT22;2201;51.100;6.814;2023-08-30T10:33:56;19.80;98.20
4374;DHT22;2201;51.100;6.814;2023-08-30T10:36:24;19.80;98.20
4374;DHT22;2201;51.100;6.814;2023-08-30T10:38:53;19.80;98.20
4374;DHT22;2201;51.100;6.814;2023-08-30T10:41:21;19.70;98.20
4374;DHT22;2201;51.100;6.814;2023-08-30T10:43:52;19.70;98.20
4374;DHT22;2201;51.100;6.814;2023-08-30T10:46:35;19.70;98.20
4374;DHT22;2201;51.100;6.814;2023-08-30T10:49:09;19.70;98.20
4374;DHT22;2201;51.100;6.814;2023-08-30T10:51:38;19.60;98.20
4374;DHT22;2201;51.100;6.814;2023-08-30T10:54:13;19.20;98.20
4374;DHT22;2201;51.100;6.814;2023-08-30T10:57:05;18.80;98.20
4374;DHT22;2201;51.100;6.814;2023-08-30T10:59:47;18.50;98.20
4374;DHT22;2201;51.100;6.814;2023-08-30T11:02:14;18.40;98.20
4374;DHT22;2201;51.100;6.814;2023-08-30T11:04:47;18.30;98.20
4374;DHT22;2201;51.100;6.814;2023-08-30T11:07:15;18.20;98.20
4374;DHT22;2201;51.100;6.814;2023-08-30T11:09:47;18.10;98.20
4374;DHT22;2201;51.100;6.814;2023-08-30T11:12:14;18.00;98.20
4374;DHT22;2201;51.100;6.814;2023-08-30T11:14:44;17.90;98.20
4374;DHT22;2201;51.100;6.814;2023-08-30T11:17:11;17.80;98.20
4374;DHT22;2201;51.100;6.814;2023-08-30T11:19:41;17.60;98.20
4374;DHT22;2201;51.100;6.814;2023-08-30T11:22:09;17.60;98.20
4374;DHT22;2201;51.100;6.814;2023-08-30T11:24:39;17.60;98.20
4374;DHT22;2201;51.100;6.814;2023-08-30T11:27:11;17.60;98.20
4374;DHT22;2201;51.100;6.814;2023-08-30T11:32:35;17.60;98.20
4374;DHT22;2201;51.100;6.814;2023-08-30T11:35:03;17.60;98.20
4374;DHT22;2201;51.100;6.814;2023-08-30T11:37:30;17.70;98.20
4374;DHT22;2201;51.100;6.814;2023-08-30T11:41:24;17.70;98.20
4374;DHT22;2201;51.100;6.814;2023-08-30T11:43:34;17.60;98.20
4374;DHT22;2201;51.100;6.814;2023-08-30T11:46:03;17.60;98.20
4374;DHT22;2201;51.100;6.814;2023-08-30T11:48:32;17.60;98.20
4374;DHT22;2201;51.100;6.814;2023-08-30T11:51:00;17.50;98.20
4374;DHT22;2201;51.100;6.814;2023-08-30T11:53:27;17.60;98.20
4374;DHT22;2201;51.100;6.814;2023-08-30T11:55:55;17.60;98.20
4374;DHT22;2201;51.100;6.814;2023-08-30T11:58:22;17.60;98.20
4374;DHT22;2201;51.100;6.814;2023-08-30T12:01:05;17.60;98.20
4374;DHT22;2201;51.100;6.814;2023-08-30T12:03:35;17.60;98.20
4374;DHT22;2201;51.100;6.814;2023-08-30T12:06:10;17.60;98.20
4374;DHT22;2201;51.100;6.814;2023-08-30T12:08:37;17.50;98.20
4374;DHT22;2201;51.100;6.814;2023-08-30T12:11:24;17.50;98.20
4374;DHT22;2201;51.100;6.814;2023-08-30T12:13:53;17.60;98.20
4374;DHT22;2201;51.100;6.814;2023-08-30T12:16:29;17.60;98.20
4374;DHT22;2201;51.100;6.814;2023-08-30T12:18:55;17.70;98.20
4374;DHT22;2201;51.100;6.814;2023-08-30T12:21:22;17.80;98.20
4374;DHT22;2201;51.100;6.814;2023-08-30T12:23:59;17.80;98.20
4374;DHT22;2201;51.100;6.814;2023-08-30T12:26:32;17.90;98.20
4374;DHT22;2201;51.100;6.814;2023-08-30T12:28:59;18.00;98.20
4374;DHT22;2201;51.100;6.814;2023-08-30T12:31:26;18.10;98.20
4374;DHT22;2201;51.100;6.814;2023-08-30T12:33:55;18.20;98.20
4374;DHT22;2201;51.100;6.814;2023-08-30T12:36:27;18.20;98.20
4374;DHT22;2201;51.100;6.814;2023-08-30T12:38:53;18.20;98.20
4374;DHT22;2201;51.100;6.814;2023-08-30T12:41:20;18.20;98.20
4374;DHT22;2201;51.100;6.814;2023-08-30T12:43:52;18.20;98.20
4374;DHT22;2201;51.100;6.814;2023-08-30T12:46:22;18.20;98.20
4374;DHT22;2201;51.100;6.814;2023-08-30T12:48:49;18.10;98.20
4374;DHT22;2201;51.100;6.814;2023-08-30T12:51:38;18.00;98.20
4374;DHT22;2201;51.100;6.814;2023-08-30T12:54:29;17.90;98.20
4374;DHT22;2201;51.100;6.814;2023-08-30T12:57:16;17.80;98.20
4374;DHT22;2201;51.100;6.814;2023-08-30T12:59:44;17.80;98.20
4374;DHT22;2201;51.100;6.814;2023-08-30T13:02:15;17.70;98.20
4374;DHT22;2201;51.100;6.814;2023-08-30T13:05:04;17.70;98.20
4374;DHT22;2201;51.100;6.814;2023-08-30T13:07:45;17.70;98.20
4374;DHT22;2201;51.100;6.814;2023-08-30T13:10:12;17.70;98.20
4374;DHT22;2201;51.100;6.814;2023-08-30T13:12:44;17.70;98.20
4374;DHT22;2201;51.100;6.814;2023-08-30T13:15:11;17.70;98.20
4374;DHT22;2201;51.100;6.814;2023-08-30T13:17:38;17.70;98.20
4374;DHT22;2201;51.100;6.814;2023-08-30T13:20:05;17.70;98.20
4374;DHT22;2201;51.100;6.814;2023-08-30T13:22:32;17.70;98.20
4374;DHT22;2201;51.100;6.814;2023-08-30T13:25:07;17.70;98.20
4374;DHT22;2201;51.100;6.814;2023-08-30T13:27:34;17.70;98.20
4374;DHT22;2201;51.100;6.814;2023-08-30T13:30:01;17.60;98.20
4374;DHT22;2201;51.100;6.814;2023-08-30T13:32:28;17.60;98.20
4374;DHT22;2201;51.100;6.814;2023-08-30T13:34:55;17.70;98.20
4374;DHT22;2201;51.100;6.814;2023-08-30T13:37:25;17.70;98.20
4374;DHT22;2201;51.100;6.814;2023-08-30T13:40:04;17.80;98.20
4374;DHT22;2201;51.100;6.814;2023-08-30T13:43:01;17.90;98.20
4374;DHT22;2201;51.100;6.814;2023-08-30T13:45:29;17.90;98.20
4374;DHT22;2201;51.100;6.814;2023-08-30T13:48:02;18.00;98.20
4374;DHT22;2201;51.100;6.814;2023-08-30T13:50:41;18.00;98.20
4374;DHT22;2201;51.100;6.814;2023-08-30T13:53:11;18.10;98.20
4374;DHT22;2201;51.100;6.814;2023-08-30T13:55:38;18.10;98.20
4374;DHT22;2201;51.100;6.814;2023-08-30T13:58:06;18.20;98.20
4374;DHT22;2201;51.100;6.814;2023-08-30T14:00:41;18.20;98.20
4374;DHT22;2201;51.100;6.814;2023-08-30T14:03:19;18.30;98.20
4374;DHT22;2201;51.100;6.814;2023-08-30T14:05:46;18.40;98.20
4374;DHT22;2201;51.100;6.814;2023-08-30T14:08:13;18.50;98.20
4374;DHT22;2201;51.100;6.814;2023-08-30T14:10:40;18.50;98.20
4374;DHT22;2201;51.100;6.814;2023-08-30T14:13:08;18.50;98.20
4374;DHT22;2201;51.100;6.814;2023-08-30T14:15:35;18.50;98.20
4374;DHT22;2201;51.100;6.814;2023-08-30T14:18:03;18.40;98.20
4374;DHT22;2201;51.100;6.814;2023-08-30T14:20:37;18.30;98.20
4374;DHT22;2201;51.100;6.814;2023-08-30T14:23:07;18.20;98.20
4374;DHT22;2201;51.100;6.814;2023-08-30T14:25:42;18.10;98.20
4374;DHT22;2201;51.100;6.814;2023-08-30T14:28:11;17.90;98.20
4374;DHT22;2201;51.100;6.814;2023-08-30T14:30:38;17.80;98.20
4374;DHT22;2201;51.100;6.814;2023-08-30T14:33:06;17.70;98.20
4374;DHT22;2201;51.100;6.814;2023-08-30T14:35:33;17.60;98.20
4374;DHT22;2201;51.100;6.814;2023-08-30T14:38:00;17.60;98.20
4374;DHT22;2201;51.100;6.814;2023-08-30T14:40:27;17.50;98.20
4374;DHT22;2201;51.100;6.814;2023-08-30T14:43:00;17.40;98.20
4374;DHT22;2201;51.100;6.814;2023-08-30T14:45:32;17.40;98.20
4374;DHT22;2201;51.100;6.814;2023-08-30T14:47:58;17.30;98.20
4374;DHT22;2201;51.100;6.814;2023-08-30T14:50:28;17.30;98.20
4374;DHT22;2201;51.100;6.814;2023-08-30T14:52:55;17.20;98.20
4374;DHT22;2201;51.100;6.814;2023-08-30T14:55:26;17.20;98.20
4374;DHT22;2201;51.100;6.814;2023-08-30T14:57:53;17.20;98.20
4374;DHT22;2201;51.100;6.814;2023-08-30T15:00:20;17.20;98.20
4374;DHT22;2201;51.100;6.814;2023-08-30T15:03:01;17.20;98.20
4374;DHT22;2201;51.100;6.814;2023-08-30T15:05:30;17.20;98.20
4374;DHT22;2201;51.100;6.814;2023-08-30T15:07:57;17.30;98.20
4374;DHT22;2201;51.100;6.814;2023-08-30T15:10:24;17.30;98.20
4374;DHT22;2201;51.100;6.814;2023-08-30T15:12:51;17.40;98.20
4374;DHT22;2201;51.100;6.814;2023-08-30T15:15:17;17.50;98.20
4374;DHT22;2201;51.100;6.814;2023-08-30T15:17:45;17.70;98.20
4374;DHT22;2201;51.100;6.814;2023-08-30T15:20:19;18.00;98.20
4374;DHT22;2201;51.100;6.814;2023-08-30T15:22:51;18.30;98.20
4374;DHT22;2201;51.100;6.814;2023-08-30T15:25:41;18.60;98.20
4374;DHT22;2201;51.100;6.814;2023-08-30T15:28:08;19.00;98.20
4374;DHT22;2201;51.100;6.814;2023-08-30T15:30:35;19.30;98.20
4374;DHT22;2201;51.100;6.814;2023-08-30T15:33:02;19.40;98.20
4374;DHT22;2201;51.100;6.814;2023-08-30T15:35:30;19.60;98.20
4374;DHT22;2201;51.100;6.814;2023-08-30T15:37:57;19.70;98.20
4374;DHT22;2201;51.100;6.814;2023-08-30T15:40:24;19.80;98.20
4374;DHT22;2201;51.100;6.814;2023-08-30T15:43:05;19.90;98.20
4374;DHT22;2201;51.100;6.814;2023-08-30T15:45:32;20.00;98.20
4374;DHT22;2201;51.100;6.814;2023-08-30T15:48:00;20.00;98.20
4374;DHT22;2201;51.100;6.814;2023-08-30T15:50:27;20.00;98.20
4374;DHT22;2201;51.100;6.814;2023-08-30T15:56:00;19.90;98.20
4374;DHT22;2201;51.100;6.814;2023-08-30T15:58:27;19.90;98.20
4374;DHT22;2201;51.100;6.814;2023-08-30T16:00:53;19.80;98.20
4374;DHT22;2201;51.100;6.814;2023-08-30T16:03:22;19.80;98.20
4374;DHT22;2201;51.100;6.814;2023-08-30T16:05:50;19.80;98.20
4374;DHT22;2201;51.100;6.814;2023-08-30T16:08:18;19.80;98.20
4374;DHT22;2201;51.100;6.814;2023-08-30T16:10:52;19.80;98.20
4374;DHT22;2201;51.100;6.814;2023-08-30T16:13:19;19.80;98.20
4374;DHT22;2201;51.100;6.814;2023-08-30T16:15:46;19.90;98.20
4374;DHT22;2201;51.100;6.814;2023-08-30T16:18:13;19.90;98.20
4374;DHT22;2201;51.100;6.814;2023-08-30T16:20:41;19.90;98.20
4374;DHT22;2201;51.100;6.814;2023-08-30T16:23:08;19.80;98.20